sensor_id;sensor_type;location;lat;lon;timestamp;temperature;humidity
57390;DHT22;43217;52.694;6.214;2023-04-01T00:00:45;9.80;99.90
57390;DHT22;43217;52.694;6.214;2023-04-01T00:03:11;9.80;99.90
57390;DHT22;43217;52.694;6.214;2023-04-01T00:05:37;9.80;99.90
57390;DHT22;43217;52.694;6.214;2023-04-01T00:08:03;9.80;99.90
57390;DHT22;43217;52.694;6.214;2023-04-01T00:10:28;9.80;99.90
57390;DHT22;43217;52.694;6.214;2023-04-01T00:12:54;9.80;99.90
57390;DHT22;43217;52.694;6.214;2023-04-01T00:15:20;9.80;99.90
57390;DHT22;43217;52.694;6.214;2023-04-01T00:17:46;9.80;99.90
57390;DHT22;43217;52.694;6.214;2023-04-01T00:20:12;9.80;99.90
57390;DHT22;43217;52.694;6.214;2023-04-01T00:22:38;9.80;99.90
57390;DHT22;43217;52.694;6.214;2023-04-01T00:25:04;9.80;99.90
57390;DHT22;43217;52.694;6.214;2023-04-01T00:27:31;9.80;99.90
57390;DHT22;43217;52.694;6.214;2023-04-01T00:29:57;9.80;99.90
57390;DHT22;43217;52.694;6.214;2023-04-01T00:32:22;9.80;99.90
57390;DHT22;43217;52.694;6.214;2023-04-01T00:34:51;9.80;99.90
57390;DHT22;43217;52.694;6.214;2023-04-01T00:37:17;9.80;99.90
57390;DHT22;43217;52.694;6.214;2023-04-01T00:39:43;9.80;99.90
57390;DHT22;43217;52.694;6.214;2023-04-01T00:42:10;9.80;99.90
57390;DHT22;43217;52.694;6.214;2023-04-01T00:44:37;9.80;99.90
57390;DHT22;43217;52.694;6.214;2023-04-01T00:47:03;9.80;99.90
57390;DHT22;43217;52.694;6.214;2023-04-01T00:49:37;9.80;99.90
57390;DHT22;43217;52.694;6.214;2023-04-01T00:52:05;9.80;99.90
57390;DHT22;43217;52.694;6.214;2023-04-01T00:54:33;9.80;99.90
57390;DHT22;43217;52.694;6.214;2023-04-01T00:57:03;9.80;99.90
57390;DHT22;43217;52.694;6.214;2023-04-01T00:59:35;9.80;99.90
57390;DHT22;43217;52.694;6.214;2023-04-01T01:02:04;9.80;99.90
57390;DHT22;43217;52.694;6.214;2023-04-01T01:04:33;9.80;99.90
57390;DHT22;43217;52.694;6.214;2023-04-01T01:10:09;9.80;99.90
57390;DHT22;43217;52.694;6.214;2023-04-01T01:12:46;9.80;99.90
57390;DHT22;43217;52.694;6.214;2023-04-01T01:15:22;9.90;99.90
57390;DHT22;43217;52.694;6.214;2023-04-01T01:17:57;9.80;99.90
57390;DHT22;43217;52.694;6.214;2023-04-01T01:21:04;9.80;99.90
57390;DHT22;43217;52.694;6.214;2023-04-01T01:26:42;9.80;99.90
57390;DHT22;43217;52.694;6.214;2023-04-01T01:29:26;9.80;99.90
57390;DHT22;43217;52.694;6.214;2023-04-01T01:32:03;9.80;99.90
57390;DHT22;43217;52.694;6.214;2023-04-01T01:34:43;9.80;99.90
57390;DHT22;43217;52.694;6.214;2023-04-01T01:37:15;9.80;99.90
57390;DHT22;43217;52.694;6.214;2023-04-01T01:39:43;9.80;99.90
57390;DHT22;43217;52.694;6.214;2023-04-01T01:42:13;9.80;99.90
57390;DHT22;43217;52.694;6.214;2023-04-01T01:44:41;9.80;99.90
57390;DHT22;43217;52.694;6.214;2023-04-01T01:47:08;9.80;99.90
57390;DHT22;43217;52.694;6.214;2023-04-01T01:49:35;9.80;99.90
57390;DHT22;43217;52.694;6.214;2023-04-01T01:52:02;9.80;99.90
57390;DHT22;43217;52.694;6.214;2023-04-01T01:54:28;9.80;99.90
57390;DHT22;43217;52.694;6.214;2023-04-01T01:57:07;9.80;99.90
57390;DHT22;43217;52.694;6.214;2023-04-01T01:59:36;9.80;99.90
57390;DHT22;43217;52.694;6.214;2023-04-01T02:02:03;9.80;99.90
57390;DHT22;43217;52.694;6.214;2023-04-01T02:04:36;9.80;99.90
57390;DHT22;43217;52.694;6.214;2023-04-01T02:07:04;9.80;99.90
57390;DHT22;43217;52.694;6.214;2023-04-01T02:09:30;9.80;99.90
57390;DHT22;43217;52.694;6.214;2023-04-01T02:11:59;9.90;99.90
57390;DHT22;43217;52.694;6.214;2023-04-01T02:14:29;9.90;99.90
57390;DHT22;43217;52.694;6.214;2023-04-01T02:17:07;9.90;99.90
57390;DHT22;43217;52.694;6.214;2023-04-01T02:22:28;9.90;99.90
57390;DHT22;43217;52.694;6.214;2023-04-01T02:24:58;9.90;99.90
57390;DHT22;43217;52.694;6.214;2023-04-01T02:27:24;9.90;99.90
57390;DHT22;43217;52.694;6.214;2023-04-01T02:29:51;9.90;99.90
57390;DHT22;43217;52.694;6.214;2023-04-01T02:32:19;9.90;99.90
57390;DHT22;43217;52.694;6.214;2023-04-01T02:34:46;9.90;99.90
57390;DHT22;43217;52.694;6.214;2023-04-01T02:37:13;9.90;99.90
57390;DHT22;43217;52.694;6.214;2023-04-01T02:39:40;9.90;99.90
57390;DHT22;43217;52.694;6.214;2023-04-01T02:42:06;9.90;99.90
57390;DHT22;43217;52.694;6.214;2023-04-01T02:44:32;9.90;99.90
57390;DHT22;43217;52.694;6.214;2023-04-01T02:46:57;9.90;99.90
57390;DHT22;43217;52.694;6.214;2023-04-01T02:49:23;9.90;99.90
57390;DHT22;43217;52.694;6.214;2023-04-01T02:51:49;9.90;99.90
57390;DHT22;43217;52.694;6.214;2023-04-01T02:54:14;9.90;99.90
57390;DHT22;43217;52.694;6.214;2023-04-01T02:56:40;9.90;99.90
57390;DHT22;43217;52.694;6.214;2023-04-01T02:59:06;9.90;99.90
57390;DHT22;43217;52.694;6.214;2023-04-01T03:01:31;9.90;99.90
57390;DHT22;43217;52.694;6.214;2023-04-01T03:03:57;9.90;99.90
57390;DHT22;43217;52.694;6.214;2023-04-01T03:06:23;9.90;99.90
57390;DHT22;43217;52.694;6.214;2023-04-01T03:08:48;9.90;99.90
57390;DHT22;43217;52.694;6.214;2023-04-01T03:11:14;9.90;99.90
57390;DHT22;43217;52.694;6.214;2023-04-01T03:13:40;9.90;99.90
57390;DHT22;43217;52.694;6.214;2023-04-01T03:16:05;9.90;99.90
57390;DHT22;43217;52.694;6.214;2023-04-01T03:18:31;9.90;99.90
57390;DHT22;43217;52.694;6.214;2023-04-01T03:20:57;9.90;99.90
57390;DHT22;43217;52.694;6.214;2023-04-01T03:23:23;9.90;99.90
57390;DHT22;43217;52.694;6.214;2023-04-01T03:25:50;9.90;99.90
57390;DHT22;43217;52.694;6.214;2023-04-01T03:28:16;9.90;99.90
57390;DHT22;43217;52.694;6.214;2023-04-01T03:30:41;9.90;99.90
57390;DHT22;43217;52.694;6.214;2023-04-01T03:33:07;9.90;99.90
57390;DHT22;43217;52.694;6.214;2023-04-01T03:35:33;9.90;99.90
57390;DHT22;43217;52.694;6.214;2023-04-01T03:38:01;9.90;99.90
57390;DHT22;43217;52.694;6.214;2023-04-01T03:40:26;9.90;99.90
57390;DHT22;43217;52.694;6.214;2023-04-01T03:42:52;9.90;99.90
57390;DHT22;43217;52.694;6.214;2023-04-01T03:45:18;10.00;99.90
57390;DHT22;43217;52.694;6.214;2023-04-01T03:47:44;9.90;99.90
57390;DHT22;43217;52.694;6.214;2023-04-01T03:50:10;10.00;99.90
57390;DHT22;43217;52.694;6.214;2023-04-01T03:52:35;10.00;99.90
57390;DHT22;43217;52.694;6.214;2023-04-01T03:55:01;10.00;99.90
57390;DHT22;43217;52.694;6.214;2023-04-01T03:57:27;10.00;99.90
57390;DHT22;43217;52.694;6.214;2023-04-01T03:59:53;10.00;99.90
57390;DHT22;43217;52.694;6.214;2023-04-01T04:02:19;10.00;99.90
57390;DHT22;43217;52.694;6.214;2023-04-01T04:04:45;10.00;99.90
57390;DHT22;43217;52.694;6.214;2023-04-01T04:07:12;10.00;99.90
57390;DHT22;43217;52.694;6.214;2023-04-01T04:09:37;10.00;99.90
57390;DHT22;43217;52.694;6.214;2023-04-01T04:12:03;10.00;99.90
57390;DHT22;43217;52.694;6.214;2023-04-01T04:14:30;10.00;99.90
57390;DHT22;43217;52.694;6.214;2023-04-01T04:16:56;10.00;99.90
57390;DHT22;43217;52.694;6.214;2023-04-01T04:19:22;10.00;99.90
57390;DHT22;43217;52.694;6.214;2023-04-01T04:21:47;10.00;99.90
57390;DHT22;43217;52.694;6.214;2023-04-01T04:24:13;10.00;99.90
57390;DHT22;43217;52.694;6.214;2023-04-01T04:26:38;10.00;99.90
57390;DHT22;43217;52.694;6.214;2023-04-01T04:29:04;10.00;99.90
57390;DHT22;43217;52.694;6.214;2023-04-01T04:31:30;10.00;99.90
57390;DHT22;43217;52.694;6.214;2023-04-01T04:33:55;10.00;99.90
57390;DHT22;43217;52.694;6.214;2023-04-01T04:36:21;10.00;99.90
57390;DHT22;43217;52.694;6.214;2023-04-01T04:38:47;10.00;99.90
57390;DHT22;43217;52.694;6.214;2023-04-01T04:41:14;10.10;99.90
57390;DHT22;43217;52.694;6.214;2023-04-01T04:43:41;10.00;99.90
57390;DHT22;43217;52.694;6.214;2023-04-01T04:46:08;10.00;99.90
57390;DHT22;43217;52.694;6.214;2023-04-01T04:48:34;10.00;99.90
57390;DHT22;43217;52.694;6.214;2023-04-01T04:51:00;10.00;99.90
57390;DHT22;43217;52.694;6.214;2023-04-01T04:53:26;10.10;99.90
57390;DHT22;43217;52.694;6.214;2023-04-01T04:55:52;10.10;99.90
57390;DHT22;43217;52.694;6.214;2023-04-01T04:58:17;10.10;99.90
57390;DHT22;43217;52.694;6.214;2023-04-01T05:00:44;10.10;99.90
57390;DHT22;43217;52.694;6.214;2023-04-01T05:03:10;10.10;99.90
57390;DHT22;43217;52.694;6.214;2023-04-01T05:05:36;10.10;99.90
57390;DHT22;43217;52.694;6.214;2023-04-01T05:08:02;10.10;99.90
57390;DHT22;43217;52.694;6.214;2023-04-01T05:10:28;10.10;99.90
57390;DHT22;43217;52.694;6.214;2023-04-01T05:12:54;10.10;99.90
57390;DHT22;43217;52.694;6.214;2023-04-01T05:15:20;10.10;99.90
57390;DHT22;43217;52.694;6.214;2023-04-01T05:17:45;10.10;99.90
57390;DHT22;43217;52.694;6.214;2023-04-01T05:20:12;10.10;99.90
57390;DHT22;43217;52.694;6.214;2023-04-01T05:22:38;10.10;99.90
57390;DHT22;43217;52.694;6.214;2023-04-01T05:25:04;10.10;99.90
57390;DHT22;43217;52.694;6.214;2023-04-01T05:27:29;10.10;99.90
57390;DHT22;43217;52.694;6.214;2023-04-01T05:29:55;10.10;99.90
57390;DHT22;43217;52.694;6.214;2023-04-01T05:32:21;10.10;99.90
57390;DHT22;43217;52.694;6.214;2023-04-01T05:34:50;10.10;99.90
57390;DHT22;43217;52.694;6.214;2023-04-01T05:37:16;10.10;99.90
57390;DHT22;43217;52.694;6.214;2023-04-01T05:39:42;10.10;99.90
57390;DHT22;43217;52.694;6.214;2023-04-01T05:42:07;10.10;99.90
57390;DHT22;43217;52.694;6.214;2023-04-01T05:44:34;10.10;99.90
57390;DHT22;43217;52.694;6.214;2023-04-01T05:47:00;10.10;99.90
57390;DHT22;43217;52.694;6.214;2023-04-01T05:49:25;10.10;99.90
57390;DHT22;43217;52.694;6.214;2023-04-01T05:51:51;10.10;99.90
57390;DHT22;43217;52.694;6.214;2023-04-01T05:54:17;10.10;99.90
57390;DHT22;43217;52.694;6.214;2023-04-01T05:56:43;10.10;99.90
57390;DHT22;43217;52.694;6.214;2023-04-01T05:59:12;10.10;99.90
57390;DHT22;43217;52.694;6.214;2023-04-01T06:01:38;10.10;99.90
57390;DHT22;43217;52.694;6.214;2023-04-01T06:04:04;10.10;99.90
57390;DHT22;43217;52.694;6.214;2023-04-01T06:06:31;10.10;99.90
57390;DHT22;43217;52.694;6.214;2023-04-01T06:09:21;10.10;99.90
57390;DHT22;43217;52.694;6.214;2023-04-01T06:12:28;10.10;99.90
57390;DHT22;43217;52.694;6.214;2023-04-01T06:15:16;10.10;99.90
57390;DHT22;43217;52.694;6.214;2023-04-01T06:20:59;10.10;99.90
57390;DHT22;43217;52.694;6.214;2023-04-01T06:28:59;10.10;99.90
57390;DHT22;43217;52.694;6.214;2023-04-01T06:34:37;10.20;99.90
57390;DHT22;43217;52.694;6.214;2023-04-01T06:40:06;10.20;99.90
57390;DHT22;43217;52.694;6.214;2023-04-01T06:56:21;10.20;99.90
57390;DHT22;43217;52.694;6.214;2023-04-01T07:04:30;10.30;99.90
57390;DHT22;43217;52.694;6.214;2023-04-01T07:07:00;10.30;99.90
57390;DHT22;43217;52.694;6.214;2023-04-01T07:09:32;10.40;99.90
57390;DHT22;43217;52.694;6.214;2023-04-01T07:12:02;10.50;99.90
57390;DHT22;43217;52.694;6.214;2023-04-01T07:14:34;10.50;99.90
57390;DHT22;43217;52.694;6.214;2023-04-01T07:17:24;10.50;99.90
57390;DHT22;43217;52.694;6.214;2023-04-01T07:19:52;10.60;99.90
57390;DHT22;43217;52.694;6.214;2023-04-01T07:22:26;10.50;99.90
57390;DHT22;43217;52.694;6.214;2023-04-01T07:24:54;10.50;99.90
57390;DHT22;43217;52.694;6.214;2023-04-01T07:27:20;10.50;99.90
57390;DHT22;43217;52.694;6.214;2023-04-01T07:29:46;10.60;99.90
57390;DHT22;43217;52.694;6.214;2023-04-01T07:35:16;10.70;99.90
57390;DHT22;43217;52.694;6.214;2023-04-01T07:41:09;10.70;99.90
57390;DHT22;43217;52.694;6.214;2023-04-01T07:46:15;10.80;99.90
57390;DHT22;43217;52.694;6.214;2023-04-01T07:57:39;10.90;99.90
57390;DHT22;43217;52.694;6.214;2023-04-01T08:00:11;11.00;99.90
57390;DHT22;43217;52.694;6.214;2023-04-01T08:08:05;11.20;99.90
57390;DHT22;43217;52.694;6.214;2023-04-01T08:19:03;11.30;99.90
57390;DHT22;43217;52.694;6.214;2023-04-01T08:21:52;11.30;99.90
57390;DHT22;43217;52.694;6.214;2023-04-01T08:24:42;11.40;99.90
57390;DHT22;43217;52.694;6.214;2023-04-01T08:27:28;11.50;99.90
57390;DHT22;43217;52.694;6.214;2023-04-01T08:30:19;11.50;99.90
57390;DHT22;43217;52.694;6.214;2023-04-01T08:33:15;11.50;99.90
57390;DHT22;43217;52.694;6.214;2023-04-01T08:35:49;11.60;99.90
57390;DHT22;43217;52.694;6.214;2023-04-01T08:38:21;11.60;99.90
57390;DHT22;43217;52.694;6.214;2023-04-01T08:59:56;11.50;99.90
57390;DHT22;43217;52.694;6.214;2023-04-01T09:16:50;11.50;99.90
57390;DHT22;43217;52.694;6.214;2023-04-01T09:19:52;11.40;99.90
57390;DHT22;43217;52.694;6.214;2023-04-01T09:25:01;11.40;99.90
57390;DHT22;43217;52.694;6.214;2023-04-01T09:44:58;11.40;99.90
57390;DHT22;43217;52.694;6.214;2023-04-01T09:47:51;11.50;99.90
57390;DHT22;43217;52.694;6.214;2023-04-01T09:50:30;11.50;99.90
57390;DHT22;43217;52.694;6.214;2023-04-01T09:58:32;11.60;99.90
57390;DHT22;43217;52.694;6.214;2023-04-01T10:09:07;11.70;99.90
57390;DHT22;43217;52.694;6.214;2023-04-01T10:26:04;11.90;99.90
57390;DHT22;43217;52.694;6.214;2023-04-01T10:36:57;11.80;99.90
57390;DHT22;43217;52.694;6.214;2023-04-01T10:42:21;11.90;99.90
57390;DHT22;43217;52.694;6.214;2023-04-01T10:45:13;12.10;99.90
57390;DHT22;43217;52.694;6.214;2023-04-01T10:53:38;12.30;99.90
57390;DHT22;43217;52.694;6.214;2023-04-01T10:56:29;12.30;99.90
57390;DHT22;43217;52.694;6.214;2023-04-01T11:05:07;12.40;99.90
57390;DHT22;43217;52.694;6.214;2023-04-01T11:18:56;12.40;99.90
57390;DHT22;43217;52.694;6.214;2023-04-01T11:32:33;12.50;99.90
57390;DHT22;43217;52.694;6.214;2023-04-01T11:40:47;12.30;99.90
57390;DHT22;43217;52.694;6.214;2023-04-01T11:43:28;12.20;99.90
57390;DHT22;43217;52.694;6.214;2023-04-01T11:52:00;11.80;99.90
57390;DHT22;43217;52.694;6.214;2023-04-01T12:08:10;11.30;99.90
57390;DHT22;43217;52.694;6.214;2023-04-01T12:11:00;11.30;99.90
57390;DHT22;43217;52.694;6.214;2023-04-01T12:13:33;11.20;99.90
57390;DHT22;43217;52.694;6.214;2023-04-01T12:16:21;11.10;99.90
57390;DHT22;43217;52.694;6.214;2023-04-01T12:19:09;11.00;99.90
57390;DHT22;43217;52.694;6.214;2023-04-01T12:22:00;11.00;99.90
57390;DHT22;43217;52.694;6.214;2023-04-01T12:27:41;10.80;99.90
57390;DHT22;43217;52.694;6.214;2023-04-01T12:33:10;10.80;99.90
57390;DHT22;43217;52.694;6.214;2023-04-01T12:39:06;10.80;99.90
57390;DHT22;43217;52.694;6.214;2023-04-01T12:44:42;10.80;99.90
57390;DHT22;43217;52.694;6.214;2023-04-01T12:47:52;10.80;99.90
57390;DHT22;43217;52.694;6.214;2023-04-01T12:55:48;10.90;99.90
57390;DHT22;43217;52.694;6.214;2023-04-01T13:00:58;10.90;99.90
57390;DHT22;43217;52.694;6.214;2023-04-01T13:03:47;10.90;99.90
57390;DHT22;43217;52.694;6.214;2023-04-01T13:17:46;10.80;99.90
57390;DHT22;43217;52.694;6.214;2023-04-01T13:25:50;10.70;99.90
57390;DHT22;43217;52.694;6.214;2023-04-01T13:28:31;10.70;99.90
57390;DHT22;43217;52.694;6.214;2023-04-01T13:33:45;10.60;99.90
57390;DHT22;43217;52.694;6.214;2023-04-01T13:40:21;10.50;99.90
57390;DHT22;43217;52.694;6.214;2023-04-01T13:42:32;10.50;99.90
57390;DHT22;43217;52.694;6.214;2023-04-01T13:45:17;10.50;99.90
57390;DHT22;43217;52.694;6.214;2023-04-01T13:51:09;10.40;99.90
57390;DHT22;43217;52.694;6.214;2023-04-01T13:53:45;10.40;99.90
57390;DHT22;43217;52.694;6.214;2023-04-01T14:04:30;10.40;99.90
57390;DHT22;43217;52.694;6.214;2023-04-01T14:07:37;10.40;99.90
57390;DHT22;43217;52.694;6.214;2023-04-01T14:16:04;10.50;99.90
57390;DHT22;43217;52.694;6.214;2023-04-01T14:21:49;10.50;99.90
57390;DHT22;43217;52.694;6.214;2023-04-01T14:24:31;10.50;99.90
57390;DHT22;43217;52.694;6.214;2023-04-01T14:27:18;10.40;99.90
57390;DHT22;43217;52.694;6.214;2023-04-01T14:36:18;10.30;99.90
57390;DHT22;43217;52.694;6.214;2023-04-01T14:38:58;10.30;99.90
57390;DHT22;43217;52.694;6.214;2023-04-01T14:49:39;10.10;99.90
57390;DHT22;43217;52.694;6.214;2023-04-01T14:52:26;10.10;99.90
57390;DHT22;43217;52.694;6.214;2023-04-01T14:54:53;10.10;99.90
57390;DHT22;43217;52.694;6.214;2023-04-01T14:57:30;10.10;99.90
57390;DHT22;43217;52.694;6.214;2023-04-01T15:00:21;10.00;99.90
57390;DHT22;43217;52.694;6.214;2023-04-01T15:03:13;10.00;99.90
57390;DHT22;43217;52.694;6.214;2023-04-01T15:11:51;9.90;99.90
57390;DHT22;43217;52.694;6.214;2023-04-01T15:17:43;9.90;99.90
57390;DHT22;43217;52.694;6.214;2023-04-01T15:20:44;9.90;99.90
57390;DHT22;43217;52.694;6.214;2023-04-01T15:23:25;9.80;99.90
57390;DHT22;43217;52.694;6.214;2023-04-01T15:26:29;9.80;99.90
57390;DHT22;43217;52.694;6.214;2023-04-01T15:32:01;9.90;99.90
57390;DHT22;43217;52.694;6.214;2023-04-01T15:50:53;9.80;99.90
57390;DHT22;43217;52.694;6.214;2023-04-01T15:53:37;9.70;99.90
57390;DHT22;43217;52.694;6.214;2023-04-01T15:56:24;9.70;99.90
57390;DHT22;43217;52.694;6.214;2023-04-01T16:12:42;9.40;99.90
57390;DHT22;43217;52.694;6.214;2023-04-01T16:15:37;9.50;99.90
57390;DHT22;43217;52.694;6.214;2023-04-01T16:18:21;9.40;99.90
57390;DHT22;43217;52.694;6.214;2023-04-01T16:20:57;9.40;99.90
57390;DHT22;43217;52.694;6.214;2023-04-01T16:23:50;9.40;99.90
57390;DHT22;43217;52.694;6.214;2023-04-01T16:26:34;9.40;99.90
57390;DHT22;43217;52.694;6.214;2023-04-01T16:32:14;9.40;99.90
57390;DHT22;43217;52.694;6.214;2023-04-01T16:37:39;9.30;99.90
57390;DHT22;43217;52.694;6.214;2023-04-01T16:40:13;9.30;99.90
57390;DHT22;43217;52.694;6.214;2023-04-01T16:43:26;9.30;99.90
57390;DHT22;43217;52.694;6.214;2023-04-01T16:49:00;9.30;99.90
57390;DHT22;43217;52.694;6.214;2023-04-01T16:51:44;9.30;99.90
57390;DHT22;43217;52.694;6.214;2023-04-01T17:02:25;9.20;99.90
57390;DHT22;43217;52.694;6.214;2023-04-01T17:04:58;9.20;99.90
57390;DHT22;43217;52.694;6.214;2023-04-01T17:10:53;9.10;99.90
57390;DHT22;43217;52.694;6.214;2023-04-01T17:21:52;9.00;99.90
57390;DHT22;43217;52.694;6.214;2023-04-01T17:24:51;8.90;99.90
57390;DHT22;43217;52.694;6.214;2023-04-01T17:39:30;8.80;99.90
57390;DHT22;43217;52.694;6.214;2023-04-01T17:46:58;8.60;99.90
57390;DHT22;43217;52.694;6.214;2023-04-01T17:49:42;8.50;99.90
57390;DHT22;43217;52.694;6.214;2023-04-01T17:52:33;8.50;99.90
57390;DHT22;43217;52.694;6.214;2023-04-01T17:55:31;8.40;99.90
57390;DHT22;43217;52.694;6.214;2023-04-01T18:09:13;8.20;99.90
57390;DHT22;43217;52.694;6.214;2023-04-01T18:14:43;8.20;99.90
57390;DHT22;43217;52.694;6.214;2023-04-01T18:21:01;8.10;99.90
57390;DHT22;43217;52.694;6.214;2023-04-01T18:23:41;8.10;99.90
57390;DHT22;43217;52.694;6.214;2023-04-01T18:26:20;8.10;99.90
57390;DHT22;43217;52.694;6.214;2023-04-01T18:29:39;8.00;99.90
57390;DHT22;43217;52.694;6.214;2023-04-01T18:32:15;8.00;99.90
57390;DHT22;43217;52.694;6.214;2023-04-01T18:35:03;8.00;99.90
57390;DHT22;43217;52.694;6.214;2023-04-01T18:37:44;7.90;99.90
57390;DHT22;43217;52.694;6.214;2023-04-01T18:40:28;7.90;99.90
57390;DHT22;43217;52.694;6.214;2023-04-01T18:49:19;7.90;99.90
57390;DHT22;43217;52.694;6.214;2023-04-01T18:51:50;7.80;99.90
57390;DHT22;43217;52.694;6.214;2023-04-01T18:54:31;7.80;99.90
57390;DHT22;43217;52.694;6.214;2023-04-01T18:57:12;7.80;99.90
57390;DHT22;43217;52.694;6.214;2023-04-01T19:02:15;7.70;99.90
57390;DHT22;43217;52.694;6.214;2023-04-01T19:15:49;7.50;99.90
57390;DHT22;43217;52.694;6.214;2023-04-01T19:26:53;7.40;99.90
57390;DHT22;43217;52.694;6.214;2023-04-01T19:32:49;7.40;99.90
57390;DHT22;43217;52.694;6.214;2023-04-01T19:35:42;7.40;99.90
57390;DHT22;43217;52.694;6.214;2023-04-01T19:41:02;7.30;99.90
57390;DHT22;43217;52.694;6.214;2023-04-01T19:46:25;7.30;99.90
57390;DHT22;43217;52.694;6.214;2023-04-01T19:54:52;7.30;99.90
57390;DHT22;43217;52.694;6.214;2023-04-01T20:02:32;7.20;99.90
57390;DHT22;43217;52.694;6.214;2023-04-01T20:05:05;7.20;99.90
57390;DHT22;43217;52.694;6.214;2023-04-01T20:07:44;7.10;99.90
57390;DHT22;43217;52.694;6.214;2023-04-01T20:13:28;7.10;99.90
57390;DHT22;43217;52.694;6.214;2023-04-01T20:16:05;7.00;99.90
57390;DHT22;43217;52.694;6.214;2023-04-01T20:21:24;7.10;99.90
57390;DHT22;43217;52.694;6.214;2023-04-01T20:23:56;7.00;99.90
57390;DHT22;43217;52.694;6.214;2023-04-01T20:26:50;7.00;99.90
57390;DHT22;43217;52.694;6.214;2023-04-01T20:43:14;6.90;99.90
57390;DHT22;43217;52.694;6.214;2023-04-01T20:45:51;6.90;99.90
57390;DHT22;43217;52.694;6.214;2023-04-01T20:48:46;6.90;99.90
57390;DHT22;43217;52.694;6.214;2023-04-01T20:51:18;6.90;99.90
57390;DHT22;43217;52.694;6.214;2023-04-01T20:54:12;6.90;99.90
57390;DHT22;43217;52.694;6.214;2023-04-01T21:07:39;6.80;99.90
57390;DHT22;43217;52.694;6.214;2023-04-01T21:12:53;6.70;99.90
57390;DHT22;43217;52.694;6.214;2023-04-01T21:18:45;6.80;99.90
57390;DHT22;43217;52.694;6.214;2023-04-01T21:21:23;6.80;99.90
57390;DHT22;43217;52.694;6.214;2023-04-01T21:27:19;6.70;99.90
57390;DHT22;43217;52.694;6.214;2023-04-01T21:38:00;6.60;99.90
57390;DHT22;43217;52.694;6.214;2023-04-01T21:43:21;6.60;99.90
57390;DHT22;43217;52.694;6.214;2023-04-01T22:08:08;6.40;99.90
57390;DHT22;43217;52.694;6.214;2023-04-01T22:10:54;6.40;99.90
57390;DHT22;43217;52.694;6.214;2023-04-01T22:13:40;6.40;99.90
57390;DHT22;43217;52.694;6.214;2023-04-01T22:16:26;6.40;99.90
57390;DHT22;43217;52.694;6.214;2023-04-01T22:21:46;6.40;99.90
57390;DHT22;43217;52.694;6.214;2023-04-01T22:32:30;6.30;99.90
57390;DHT22;43217;52.694;6.214;2023-04-01T22:41:19;6.20;99.90
57390;DHT22;43217;52.694;6.214;2023-04-01T22:43:48;6.20;99.90
57390;DHT22;43217;52.694;6.214;2023-04-01T22:50:05;6.20;99.90
57390;DHT22;43217;52.694;6.214;2023-04-01T22:54:56;6.20;99.90
57390;DHT22;43217;52.694;6.214;2023-04-01T22:57:32;6.20;99.90
57390;DHT22;43217;52.694;6.214;2023-04-01T23:02:39;6.20;99.90
57390;DHT22;43217;52.694;6.214;2023-04-01T23:05:10;6.10;99.90
57390;DHT22;43217;52.694;6.214;2023-04-01T23:10:27;6.10;99.90
57390;DHT22;43217;52.694;6.214;2023-04-01T23:12:58;6.10;99.90
57390;DHT22;43217;52.694;6.214;2023-04-01T23:15:24;6.10;99.90
57390;DHT22;43217;52.694;6.214;2023-04-01T23:20:51;6.10;99.90
57390;DHT22;43217;52.694;6.214;2023-04-01T23:28:36;6.00;99.90
57390;DHT22;43217;52.694;6.214;2023-04-01T23:31:41;6.10;99.90
57390;DHT22;43217;52.694;6.214;2023-04-01T23:36:46;6.00;99.90
57390;DHT22;43217;52.694;6.214;2023-04-01T23:39:35;6.00;99.90
57390;DHT22;43217;52.694;6.214;2023-04-01T23:42:05;6.00;99.90
57390;DHT22;43217;52.694;6.214;2023-04-01T23:44:32;6.00;99.90
57390;DHT22;43217;52.694;6.214;2023-04-01T23:47:00;6.00;99.90
57390;DHT22;43217;52.694;6.214;2023-04-01T23:49:34;6.00;99.90
57390;DHT22;43217;52.694;6.214;2023-04-01T23:52:20;5.90;99.90
57390;DHT22;43217;52.694;6.214;2023-04-01T23:54:59;5.90;99.90
57390;DHT22;43217;52.694;6.214;2023-04-01T23:57:34;5.90;99.90
